createdAt,value
2019-05-28T00:00:11.380Z,4.10
2019-05-28T00:02:45.746Z,4.30
2019-05-28T00:05:18.934Z,4.40
2019-05-28T00:07:51.297Z,4.17
2019-05-28T00:10:23.547Z,4.20
2019-05-28T00:12:55.812Z,4.50
2019-05-28T00:15:28.079Z,4.70
2019-05-28T00:18:00.292Z,4.27
2019-05-28T00:20:33.558Z,4.50
2019-05-28T00:23:05.877Z,4.20
2019-05-28T00:25:38.225Z,4.50
2019-05-28T00:28:10.497Z,4.40
2019-05-28T00:30:44.616Z,4.60
2019-05-28T00:33:16.940Z,4.30
2019-05-28T00:35:49.281Z,4.70
2019-05-28T00:38:21.795Z,5.00
2019-05-28T00:40:54.397Z,4.80
2019-05-28T00:43:26.839Z,4.80
2019-05-28T00:45:59.363Z,4.53
2019-05-28T00:48:31.734Z,4.67
2019-05-28T00:51:04.142Z,4.73
2019-05-28T00:53:36.489Z,4.53
2019-05-28T00:56:08.869Z,4.70
2019-05-28T00:58:41.378Z,4.80
2019-05-28T01:01:13.698Z,4.93
2019-05-28T01:03:46.358Z,4.47
2019-05-28T01:06:18.779Z,5.07
2019-05-28T01:08:51.140Z,4.77
2019-05-28T01:11:23.458Z,5.03
2019-05-28T01:13:55.682Z,5.20
2019-05-28T01:16:28.112Z,5.23
2019-05-28T01:19:00.315Z,5.50
2019-05-28T01:21:32.739Z,5.07
2019-05-28T01:24:06.035Z,5.20
2019-05-28T01:26:38.361Z,4.93
2019-05-28T01:29:10.653Z,5.70
2019-05-28T01:31:43.837Z,5.40
2019-05-28T01:34:16.305Z,4.73
2019-05-28T01:36:48.661Z,5.03
2019-05-28T01:39:20.963Z,4.83
2019-05-28T01:41:53.381Z,4.73
2019-05-28T01:44:25.731Z,4.80
2019-05-28T01:46:58.087Z,4.67
2019-05-28T01:49:30.451Z,4.73
2019-05-28T01:52:02.619Z,4.90
2019-05-28T01:54:34.890Z,5.13
2019-05-28T01:57:07.136Z,5.30
2019-05-28T01:59:39.400Z,5.20
2019-05-28T02:02:11.692Z,5.20
2019-05-28T02:04:44.111Z,5.40
2019-05-28T02:07:16.381Z,5.20
2019-05-28T02:09:48.742Z,5.53
2019-05-28T02:12:21.096Z,5.53
2019-05-28T02:14:53.604Z,5.73
2019-05-28T02:17:25.942Z,5.80
2019-05-28T02:19:58.307Z,6.00
2019-05-28T02:22:30.597Z,6.43
2019-05-28T02:25:02.822Z,6.77
2019-05-28T02:27:35.229Z,6.17
2019-05-28T02:30:09.658Z,5.87
2019-05-28T02:32:43.002Z,6.40
2019-05-28T02:35:16.064Z,5.67
2019-05-28T02:37:48.522Z,6.23
2019-05-28T02:40:21.085Z,5.77
2019-05-28T02:42:53.378Z,5.90
2019-05-28T02:45:25.891Z,6.13
2019-05-28T02:47:58.324Z,5.53
2019-05-28T02:50:59.217Z,6.00
2019-05-28T02:53:32.858Z,5.90
2019-05-28T02:56:05.664Z,5.90
2019-05-28T02:58:38.026Z,6.10
2019-05-28T03:01:10.313Z,6.10
2019-05-28T03:03:45.444Z,6.50
2019-05-28T03:06:19.492Z,6.50
2019-05-28T03:08:55.062Z,7.07
2019-05-28T03:11:27.844Z,7.17
2019-05-28T03:14:00.277Z,6.63
2019-05-28T03:16:35.477Z,7.00
2019-05-28T03:19:09.201Z,6.60
2019-05-28T03:21:42.129Z,6.50
2019-05-28T03:24:17.304Z,6.60
2019-05-28T03:26:49.536Z,6.60
2019-05-28T03:29:22.779Z,7.10
2019-05-28T03:32:06.998Z,6.43
2019-05-28T03:34:30.199Z,7.03
2019-05-28T03:37:02.964Z,6.70
2019-05-28T03:39:37.004Z,6.90
2019-05-28T03:42:09.238Z,6.47
2019-05-28T03:44:41.558Z,6.83
2019-05-28T03:47:13.937Z,7.10
2019-05-28T03:49:46.383Z,7.07
2019-05-28T03:52:18.717Z,7.70
2019-05-28T03:54:50.934Z,7.53
2019-05-28T03:57:23.256Z,7.00
2019-05-28T03:59:58.026Z,7.87
2019-05-28T04:02:30.444Z,7.20
2019-05-28T04:05:02.724Z,7.57
2019-05-28T04:07:34.987Z,7.43
2019-05-28T04:10:07.354Z,7.30
2019-05-28T04:12:39.729Z,7.60
2019-05-28T04:15:12.076Z,7.43
2019-05-28T04:17:45.283Z,7.27
2019-05-28T04:20:17.769Z,7.17
2019-05-28T04:22:50.073Z,7.30
2019-05-28T04:25:22.855Z,7.57
2019-05-28T04:27:56.291Z,9.20
2019-05-28T04:30:28.733Z,9.30
2019-05-28T04:33:01.499Z,8.00
2019-05-28T04:35:33.952Z,8.07
2019-05-28T04:38:06.403Z,7.77
2019-05-28T04:40:38.667Z,7.77
2019-05-28T04:43:11.106Z,7.43
2019-05-28T04:45:45.101Z,7.87
2019-05-28T04:48:17.652Z,8.20
2019-05-28T04:50:50.230Z,8.70
2019-05-28T04:53:22.457Z,8.40
2019-05-28T04:55:54.708Z,8.10
2019-05-28T04:58:27.007Z,8.40
2019-05-28T05:00:59.425Z,8.00
2019-05-28T05:03:32.689Z,8.33
2019-05-28T05:06:05.568Z,8.47
2019-05-28T05:08:40.049Z,8.40
2019-05-28T05:11:13.144Z,8.20
2019-05-28T05:13:46.026Z,9.40
2019-05-28T05:16:18.592Z,9.00
2019-05-28T05:18:51.053Z,9.07
2019-05-28T05:21:23.374Z,8.80
2019-05-28T05:23:55.589Z,8.83
2019-05-28T05:26:29.438Z,8.20
2019-05-28T05:29:01.821Z,8.07
2019-05-28T05:31:34.809Z,8.23
2019-05-28T05:34:07.093Z,9.40
2019-05-28T05:36:39.485Z,9.07
2019-05-28T05:39:11.834Z,9.73
2019-05-28T05:41:44.335Z,9.10
2019-05-28T05:44:16.608Z,9.70
2019-05-28T05:46:48.944Z,10.13
2019-05-28T05:49:21.394Z,9.60
2019-05-28T05:51:53.705Z,9.80
2019-05-28T05:54:26.090Z,9.43
2019-05-28T05:56:58.583Z,9.90
2019-05-28T05:59:30.814Z,10.00
2019-05-28T06:02:03.445Z,10.13
2019-05-28T06:04:36.691Z,10.20
2019-05-28T06:07:08.984Z,10.73
2019-05-28T06:09:41.222Z,10.63
2019-05-28T06:12:14.564Z,9.67
2019-05-28T06:14:48.555Z,11.30
2019-05-28T06:17:21.008Z,11.60
2019-05-28T06:19:53.295Z,10.77
2019-05-28T06:22:25.585Z,11.13
2019-05-28T06:25:00.924Z,11.37
2019-05-28T06:27:33.372Z,11.30
2019-05-28T06:30:07.919Z,12.27
2019-05-28T06:32:44.509Z,11.97
2019-05-28T06:35:17.686Z,11.13
2019-05-28T06:37:50.972Z,11.60
2019-05-28T06:40:23.574Z,11.50
2019-05-28T06:42:57.908Z,12.57
2019-05-28T06:45:30.633Z,11.50
2019-05-28T06:48:05.221Z,12.10
2019-05-28T06:50:37.692Z,11.73
2019-05-28T06:53:10.603Z,12.43
2019-05-28T06:55:44.512Z,11.87
2019-05-28T06:58:17.096Z,11.70
2019-05-28T07:00:49.482Z,12.37
2019-05-28T07:03:21.827Z,11.50
2019-05-28T07:06:06.458Z,11.30
2019-05-28T07:08:30.677Z,12.17
2019-05-28T07:11:02.988Z,11.60
2019-05-28T07:13:36.417Z,11.30
2019-05-28T07:16:08.957Z,12.67
2019-05-28T07:18:42.299Z,11.20
2019-05-28T07:21:14.833Z,11.00
2019-05-28T07:23:47.416Z,10.40
2019-05-28T07:26:19.726Z,10.30
2019-05-28T07:28:52.207Z,10.47
2019-05-28T07:31:24.874Z,10.50
2019-05-28T07:33:57.267Z,9.83
2019-05-28T07:36:29.711Z,10.83
2019-05-28T07:39:03.772Z,9.40
2019-05-28T07:41:36.184Z,8.97
2019-05-28T07:44:08.647Z,11.03
2019-05-28T07:46:40.922Z,10.93
2019-05-28T07:49:13.326Z,10.20
2019-05-28T07:51:45.604Z,9.40
2019-05-28T07:54:17.910Z,10.40
2019-05-28T07:56:51.274Z,10.13
2019-05-28T07:59:23.894Z,9.23
2019-05-28T08:01:56.226Z,10.67
2019-05-28T08:04:28.658Z,9.47
2019-05-28T08:07:01.043Z,9.50
2019-05-28T08:09:33.632Z,10.10
2019-05-28T08:12:05.986Z,9.70
2019-05-28T08:14:38.317Z,8.40
2019-05-28T08:17:10.669Z,8.00
2019-05-28T08:19:43.193Z,8.83
2019-05-28T08:22:16.039Z,8.93
2019-05-28T08:24:48.483Z,7.97
2019-05-28T08:27:20.984Z,8.10
2019-05-28T08:29:53.408Z,7.97
2019-05-28T08:32:25.794Z,7.43
2019-05-28T08:35:05.685Z,5.87
2019-05-28T08:37:32.076Z,6.43
2019-05-28T08:40:05.264Z,6.63
2019-05-28T08:42:37.925Z,6.13
2019-05-28T08:45:11.401Z,5.97
2019-05-28T08:47:43.719Z,5.30
2019-05-28T08:50:33.152Z,5.60
2019-05-28T08:52:50.892Z,6.70
2019-05-28T08:55:23.245Z,6.40
2019-05-28T08:57:55.725Z,5.63
2019-05-28T09:03:29.888Z,5.80
2019-05-28T09:06:02.116Z,6.00
2019-05-28T09:08:39.617Z,5.93
2019-05-28T09:11:09.799Z,6.33
2019-05-28T09:13:42.368Z,6.80
2019-05-28T09:16:14.733Z,6.77
2019-05-28T09:18:47.161Z,6.03
2019-05-28T09:21:19.555Z,5.97
2019-05-28T09:23:51.900Z,6.50
2019-05-28T09:26:24.372Z,6.90
2019-05-28T09:28:56.741Z,6.73
2019-05-28T09:31:29.270Z,6.70
2019-05-28T09:34:01.501Z,7.50
2019-05-28T09:36:33.801Z,6.93
2019-05-28T09:39:08.407Z,6.80
2019-05-28T09:41:40.768Z,7.00
2019-05-28T09:44:13.060Z,7.00
2019-05-28T09:46:45.346Z,6.07
2019-05-28T09:49:17.792Z,6.13
2019-05-28T09:51:51.084Z,6.30
2019-05-28T09:54:23.399Z,6.50
2019-05-28T09:56:55.621Z,6.60
2019-05-28T09:59:41.217Z,5.90
2019-05-28T10:02:04.790Z,6.83
2019-05-28T10:04:48.514Z,6.50
2019-05-28T10:07:11.159Z,5.93
2019-05-28T10:09:43.663Z,6.03
2019-05-28T10:12:15.857Z,5.53
2019-05-28T10:14:48.100Z,5.40
2019-05-28T10:17:21.429Z,6.07
2019-05-28T10:19:53.694Z,6.50
2019-05-28T10:22:25.989Z,6.57
2019-05-28T10:24:58.257Z,6.20
2019-05-28T10:27:30.728Z,5.47
2019-05-28T10:30:03.562Z,5.27
2019-05-28T10:32:35.985Z,5.67
2019-05-28T10:35:08.800Z,5.57
2019-05-28T10:37:41.148Z,5.30
2019-05-28T10:40:13.683Z,5.20
2019-05-28T10:45:15.673Z,5.37
2019-05-28T10:47:48.136Z,5.47
2019-05-28T10:50:21.514Z,5.57
2019-05-28T10:52:55.408Z,5.00
2019-05-28T10:55:28.802Z,5.90
2019-05-28T10:58:01.153Z,5.30
2019-05-28T11:00:33.717Z,5.70
2019-05-28T11:03:06.313Z,5.20
2019-05-28T11:05:38.548Z,5.57
2019-05-28T11:08:10.824Z,5.63
2019-05-28T11:10:43.120Z,5.67
2019-05-28T11:13:15.393Z,5.70
2019-05-28T11:15:47.755Z,5.50
2019-05-28T11:18:22.801Z,5.47
2019-05-28T11:20:56.719Z,5.30
2019-05-28T11:23:29.593Z,5.07
2019-05-28T11:26:01.876Z,5.60
2019-05-28T11:28:36.939Z,5.93
2019-05-28T11:31:12.132Z,6.20
2019-05-28T11:33:45.640Z,4.93
2019-05-28T11:36:22.297Z,4.57
2019-05-28T11:38:56.254Z,4.93
2019-05-28T11:41:41.579Z,5.00
2019-05-28T11:44:03.649Z,4.83
2019-05-28T11:46:37.081Z,4.30
2019-05-28T11:49:09.943Z,4.20
2019-05-28T11:51:42.766Z,4.40
2019-05-28T11:54:15.117Z,4.73
2019-05-28T11:56:50.138Z,5.67
2019-05-28T11:59:23.171Z,5.77
2019-05-28T12:01:57.077Z,4.97
2019-05-28T12:04:29.600Z,4.30
2019-05-28T12:07:02.474Z,4.03
2019-05-28T12:09:36.044Z,4.07
2019-05-28T12:12:12.910Z,4.20
2019-05-28T12:14:51.460Z,3.70
2019-05-28T12:17:41.713Z,4.03
2019-05-28T12:20:02.016Z,3.70
2019-05-28T12:22:35.514Z,3.60
2019-05-28T12:25:10.732Z,4.17
2019-05-28T12:27:44.223Z,3.93
2019-05-28T12:30:19.728Z,4.10
2019-05-28T12:32:54.439Z,3.93
2019-05-28T12:35:30.076Z,3.93
2019-05-28T12:38:01.417Z,3.93
2019-05-28T12:40:47.115Z,4.03
2019-05-28T12:43:11.085Z,4.37
2019-05-28T12:45:43.358Z,4.10
2019-05-28T12:48:15.716Z,4.03
2019-05-28T12:50:48.126Z,3.73
2019-05-28T12:53:20.565Z,3.90
2019-05-28T12:55:52.964Z,4.00
2019-05-28T12:58:41.488Z,3.80
2019-05-28T13:01:02.511Z,3.80
2019-05-28T13:03:34.935Z,3.87
2019-05-28T13:06:07.325Z,3.40
2019-05-28T13:08:41.086Z,3.53
2019-05-28T13:11:13.476Z,3.53
2019-05-28T13:13:47.484Z,3.90
2019-05-28T13:16:21.757Z,3.50
2019-05-28T13:18:54.181Z,3.67
2019-05-28T13:21:29.224Z,3.40
2019-05-28T13:24:01.609Z,3.70
2019-05-28T13:26:33.841Z,3.50
2019-05-28T13:29:06.252Z,4.00
2019-05-28T13:31:38.545Z,3.40
2019-05-28T13:34:10.948Z,3.90
2019-05-28T13:36:45.396Z,3.80
2019-05-28T13:39:21.127Z,3.93
2019-05-28T13:41:56.735Z,3.53
2019-05-28T13:44:29.146Z,3.87
2019-05-28T13:47:01.570Z,3.90
2019-05-28T13:49:33.870Z,3.70
2019-05-28T13:52:12.036Z,4.00
2019-05-28T13:54:43.033Z,3.80
2019-05-28T13:57:15.719Z,4.13
2019-05-28T13:59:48.281Z,3.77
2019-05-28T14:02:21.605Z,3.93
2019-05-28T14:04:53.946Z,4.30
2019-05-28T14:07:26.886Z,4.00
2019-05-28T14:09:59.268Z,3.70
2019-05-28T14:12:36.154Z,4.00
2019-05-28T14:15:12.144Z,3.90
2019-05-28T14:17:44.769Z,4.00
2019-05-28T14:20:17.736Z,4.10
2019-05-28T14:22:51.183Z,3.93
2019-05-28T14:25:23.558Z,3.73
2019-05-28T14:27:55.972Z,4.03
2019-05-28T14:30:30.149Z,3.80
2019-05-28T14:33:08.698Z,4.10
2019-05-28T14:35:46.446Z,4.77
2019-05-28T14:38:19.076Z,4.80
2019-05-28T14:40:54.214Z,5.00
2019-05-28T14:43:30.556Z,5.10
2019-05-28T14:46:05.268Z,5.63
2019-05-28T14:48:38.005Z,5.40
2019-05-28T14:51:10.394Z,5.70
2019-05-28T14:53:43.995Z,5.30
2019-05-28T14:56:16.855Z,5.13
2019-05-28T14:58:49.775Z,5.30
2019-05-28T15:01:26.154Z,5.37
2019-05-28T15:03:58.749Z,5.20
2019-05-28T15:06:32.925Z,5.30
2019-05-28T15:09:20.379Z,5.13
2019-05-28T15:11:42.693Z,5.20
2019-05-28T15:14:15.916Z,4.93
2019-05-28T15:16:50.381Z,5.30
2019-05-28T15:19:23.061Z,5.33
2019-05-28T15:21:55.515Z,5.10
2019-05-28T15:24:30.399Z,5.27
2019-05-28T15:27:11.029Z,5.00
2019-05-28T15:29:46.497Z,5.03
2019-05-28T15:32:20.709Z,5.33
2019-05-28T15:34:54.114Z,5.20
2019-05-28T15:37:28.977Z,5.40
2019-05-28T15:40:01.530Z,4.90
2019-05-28T15:42:37.603Z,5.70
2019-05-28T15:45:11.861Z,5.30
2019-05-28T15:47:45.257Z,5.23
2019-05-28T15:50:21.650Z,5.33
2019-05-28T15:52:54.317Z,5.40
2019-05-28T15:55:30.039Z,5.40
2019-05-28T15:58:02.530Z,6.73
2019-05-28T16:00:36.341Z,5.40
2019-05-28T16:03:08.664Z,5.10
2019-05-28T16:05:41.530Z,5.30
2019-05-28T16:08:14.864Z,5.30
2019-05-28T16:10:47.593Z,5.03
2019-05-28T16:13:20.121Z,5.50
2019-05-28T16:15:52.661Z,5.37
2019-05-28T16:18:25.058Z,5.40
2019-05-28T16:20:57.437Z,5.30
2019-05-28T16:23:29.738Z,5.27
2019-05-28T16:26:03.516Z,5.37
2019-05-28T16:28:36.077Z,5.50
2019-05-28T16:31:12.967Z,5.63
2019-05-28T16:33:42.376Z,5.13
2019-05-28T16:36:14.662Z,5.50
2019-05-28T16:38:47.792Z,5.50
2019-05-28T16:41:20.392Z,5.37
2019-05-28T16:43:54.454Z,5.63
2019-05-28T16:46:27.112Z,5.57
2019-05-28T16:48:59.449Z,5.60
2019-05-28T16:51:35.155Z,5.23
2019-05-28T16:54:18.724Z,5.70
2019-05-28T16:56:41.477Z,5.20
2019-05-28T16:59:14.204Z,5.60
2019-05-28T17:01:49.894Z,5.80
2019-05-28T17:04:22.372Z,5.77
2019-05-28T17:06:54.627Z,5.50
2019-05-28T17:09:26.838Z,5.97
2019-05-28T17:11:59.133Z,5.67
2019-05-28T17:14:31.498Z,5.57
2019-05-28T17:17:04.145Z,5.60
2019-05-28T17:19:36.442Z,5.67
2019-05-28T17:22:08.924Z,5.63
2019-05-28T17:24:41.251Z,6.37
2019-05-28T17:27:13.522Z,5.77
2019-05-28T17:29:45.957Z,5.77
2019-05-28T17:32:18.573Z,5.70
2019-05-28T17:34:51.071Z,6.13
2019-05-28T17:37:23.306Z,6.23
2019-05-28T17:39:56.095Z,6.03
2019-05-28T17:42:28.432Z,5.90
2019-05-28T17:45:00.940Z,5.67
2019-05-28T17:47:41.802Z,5.77
2019-05-28T17:50:07.397Z,5.73
2019-05-28T17:52:39.921Z,5.60
2019-05-28T17:55:12.884Z,6.77
2019-05-28T17:57:45.311Z,5.53
2019-05-28T18:00:18.555Z,6.17
2019-05-28T18:02:52.357Z,6.27
2019-05-28T18:05:24.698Z,6.20
2019-05-28T18:08:00.114Z,6.33
2019-05-28T18:10:34.706Z,6.10
2019-05-28T18:13:06.809Z,6.40
2019-05-28T18:15:39.237Z,6.57
2019-05-28T18:18:14.354Z,6.63
2019-05-28T18:20:47.744Z,6.40
2019-05-28T18:23:20.073Z,6.40
2019-05-28T18:25:53.508Z,6.33
2019-05-28T18:28:26.019Z,7.20
2019-05-28T18:30:58.334Z,6.90
2019-05-28T18:33:30.713Z,6.33
2019-05-28T18:36:03.137Z,6.60
2019-05-28T18:38:43.249Z,6.47
2019-05-28T18:41:21.592Z,6.63
2019-05-28T18:43:47.550Z,6.67
2019-05-28T18:46:20.618Z,6.50
2019-05-28T18:48:53.961Z,7.07
2019-05-28T18:51:26.736Z,6.63
2019-05-28T18:54:01.315Z,6.67
2019-05-28T18:56:33.739Z,6.80
2019-05-28T18:59:06.483Z,6.60
2019-05-28T19:01:41.258Z,6.63
2019-05-28T19:04:14.502Z,6.83
2019-05-28T19:06:46.953Z,7.17
2019-05-28T19:09:19.602Z,6.50
2019-05-28T19:11:52.053Z,7.30
2019-05-28T19:14:24.333Z,7.20
2019-05-28T19:16:57.840Z,7.47
2019-05-28T19:19:30.203Z,7.07
2019-05-28T19:22:02.802Z,7.00
2019-05-28T19:24:35.173Z,7.40
2019-05-28T19:27:07.517Z,7.47
2019-05-28T19:29:39.792Z,7.27
2019-05-28T19:32:12.229Z,7.73
2019-05-28T19:34:48.635Z,8.00
2019-05-28T19:37:20.891Z,7.50
2019-05-28T19:39:53.328Z,7.37
2019-05-28T19:42:26.613Z,6.80
2019-05-28T19:44:59.739Z,7.37
2019-05-28T19:47:32.201Z,7.63
2019-05-28T19:50:06.467Z,7.33
2019-05-28T19:52:38.991Z,7.80
2019-05-28T19:55:11.787Z,8.10
2019-05-28T19:57:44.465Z,7.43
2019-05-28T20:00:21.135Z,7.70
2019-05-28T20:02:54.906Z,7.27
2019-05-28T20:05:27.237Z,7.57
2019-05-28T20:08:00.610Z,6.93
2019-05-28T20:10:33.091Z,7.23
2019-05-28T20:13:05.769Z,7.17
2019-05-28T20:15:39.087Z,7.80
2019-05-28T20:18:25.880Z,7.03
2019-05-28T20:20:47.536Z,7.37
2019-05-28T20:23:20.258Z,7.77
2019-05-28T20:25:54.440Z,7.63
2019-05-28T20:28:27.024Z,7.60
2019-05-28T20:30:59.848Z,7.47
2019-05-28T20:33:32.465Z,7.83
2019-05-28T20:36:05.915Z,7.27
2019-05-28T20:38:38.281Z,7.80
2019-05-28T20:41:10.778Z,8.13
2019-05-28T20:43:43.100Z,7.50
2019-05-28T20:46:15.690Z,7.80
2019-05-28T20:48:49.197Z,7.87
2019-05-28T20:51:22.244Z,7.60
2019-05-28T20:53:54.460Z,7.67
2019-05-28T20:56:26.876Z,7.90
2019-05-28T20:59:01.289Z,7.60
2019-05-28T21:01:32.935Z,8.13
2019-05-28T21:04:05.373Z,7.83
2019-05-28T21:06:37.833Z,7.73
2019-05-28T21:09:12.971Z,8.00
2019-05-28T21:11:44.216Z,8.30
2019-05-28T21:14:16.425Z,7.97
2019-05-28T21:16:48.933Z,8.00
2019-05-28T21:19:21.197Z,8.57
2019-05-28T21:21:53.722Z,8.80
2019-05-28T21:24:28.239Z,8.23
2019-05-28T21:27:00.484Z,8.63
2019-05-28T21:29:32.825Z,8.20
2019-05-28T21:32:05.077Z,8.60
2019-05-28T21:34:37.340Z,8.57
2019-05-28T21:37:09.649Z,8.90
2019-05-28T21:39:41.973Z,8.20
2019-05-28T21:42:14.228Z,8.73
2019-05-28T21:44:46.424Z,9.00
2019-05-28T21:47:18.661Z,8.23
2019-05-28T21:49:50.965Z,8.60
2019-05-28T21:52:23.210Z,8.67
2019-05-28T21:54:55.682Z,9.00
2019-05-28T21:57:27.937Z,8.87
2019-05-28T22:00:00.181Z,8.43
2019-05-28T22:02:32.495Z,8.70
2019-05-28T22:05:07.957Z,8.33
2019-05-28T22:07:39.058Z,7.83
2019-05-28T22:10:11.341Z,8.13
2019-05-28T22:12:43.509Z,7.90
2019-05-28T22:15:16.068Z,8.20
2019-05-28T22:17:48.279Z,7.27
2019-05-28T22:20:20.492Z,7.93
2019-05-28T22:22:52.933Z,8.03
2019-05-28T22:25:25.321Z,7.83
2019-05-28T22:27:58.523Z,7.43
2019-05-28T22:30:30.982Z,7.23
2019-05-28T22:33:04.095Z,7.13
2019-05-28T22:35:39.335Z,7.33
2019-05-28T22:38:11.985Z,7.80
2019-05-28T22:40:44.311Z,7.50
2019-05-28T22:43:30.776Z,7.90
2019-05-28T22:45:50.610Z,7.50
2019-05-28T22:48:22.873Z,7.60
2019-05-28T22:50:55.171Z,7.70
2019-05-28T22:53:27.461Z,8.53
2019-05-28T22:56:00.006Z,8.23
2019-05-28T22:58:32.357Z,8.30
2019-05-28T23:01:04.721Z,8.40
2019-05-28T23:03:36.957Z,9.00
2019-05-28T23:06:09.361Z,8.40
2019-05-28T23:08:41.597Z,8.50
2019-05-28T23:11:13.881Z,8.50
2019-05-28T23:13:47.250Z,9.03
2019-05-28T23:16:19.537Z,8.63
2019-05-28T23:18:51.752Z,9.17
2019-05-28T23:21:23.969Z,8.83
2019-05-28T23:23:56.184Z,10.03
2019-05-28T23:26:28.452Z,9.47
2019-05-28T23:29:01.629Z,9.90
2019-05-28T23:31:33.914Z,9.63
2019-05-28T23:34:06.355Z,9.23
2019-05-28T23:36:38.789Z,8.93
2019-05-28T23:39:11.175Z,9.93
2019-05-28T23:41:43.437Z,9.40
2019-05-28T23:46:47.529Z,9.90
2019-05-28T23:49:19.731Z,9.90
2019-05-28T23:51:52.053Z,10.23
2019-05-28T23:54:24.241Z,9.60
2019-05-28T23:56:56.576Z,10.30
2019-05-28T23:59:28.791Z,10.30
